Airport Name : Palma

Other Name : Palma D Mallorca

ICAO : LEPA

IATA : PMI

FAA :

Latitude : 39.334

Longitude : 2.4386

 

TAF (Terminal Aerodrome Forecast)

TAF LEPA 161700Z 1618/1718 22010KT 9999 FEW030 TX32/1712Z TN19/1706Z BECMG 1620/1622 07005KT BECMG 1710/1712 20012KT PROB30 TEMPO 1712/1718 FEW030TCU

 

METAR (METeorological Aerodrome Report)

LEPA 161800Z 23009KT 200V260 9999 FEW030 28/20 Q1015 NOSIG

LEPA 161730Z 23010KT 200V260 9999 FEW030 28/19 Q1015 NOSIG

LEPA 161700Z 24010KT 9999 FEW030 28/21 Q1015 NOSIG

LEPA 161630Z 25011KT 210V280 9999 FEW030 29/20 Q1015 NOSIG

LEPA 161600Z 24012KT 210V270 9999 FEW030 29/20 Q1015 NOSIG

LEPA 161530Z 24012KT 200V260 9999 FEW030 29/20 Q1016 NOSIG

LEPA 161500Z 23012KT 9999 FEW030 29/20 Q1016 NOSIG

LEPA 161430Z 24013KT 210V270 9999 FEW030 29/20 Q1016 NOSIG